createdAt,value
2019-05-29T00:05:01.814Z,101178.64
2019-05-29T00:10:08.823Z,101177.19
2019-05-29T00:15:14.606Z,101194.89
2019-05-29T00:20:20.503Z,101202.87
2019-05-29T00:25:26.184Z,101216.06
2019-05-29T00:30:31.657Z,101215.15
2019-05-29T00:35:37.166Z,101216.84
2019-05-29T00:40:42.639Z,101220.59
2019-05-29T00:45:48.107Z,101223.63
2019-05-29T00:50:53.586Z,101236.95
2019-05-29T00:55:59.065Z,101240.02
2019-05-29T01:01:04.482Z,101247.41
2019-05-29T01:06:09.952Z,101246.19
2019-05-29T01:11:15.439Z,101249.89
2019-05-29T01:16:21.743Z,101253.25
2019-05-29T01:21:27.343Z,101264.84
2019-05-29T01:26:32.841Z,101266.50
2019-05-29T01:31:38.301Z,101267.55
2019-05-29T01:36:43.815Z,101280.42
2019-05-29T01:41:49.366Z,101289.28
2019-05-29T01:46:54.812Z,101289.44
2019-05-29T01:52:00.454Z,101292.09
2019-05-29T01:57:05.984Z,101293.83
2019-05-29T02:02:11.625Z,101305.26
2019-05-29T02:07:17.930Z,101314.79
2019-05-29T02:12:24.429Z,101320.25
2019-05-29T02:17:30.219Z,101324.05
2019-05-29T02:22:35.730Z,101330.44
2019-05-29T02:27:41.158Z,101332.29
2019-05-29T02:32:46.681Z,101345.77
2019-05-29T02:37:52.246Z,101347.74
2019-05-29T02:42:57.671Z,101351.76
2019-05-29T02:48:03.129Z,101359.23
2019-05-29T02:53:08.547Z,101359.34
2019-05-29T02:58:14.015Z,101360.58
2019-05-29T03:03:21.473Z,101364.20
2019-05-29T03:08:29.372Z,101374.67
2019-05-29T03:13:34.274Z,101380.23
2019-05-29T03:18:39.723Z,101382.25
2019-05-29T03:23:45.177Z,101383.68
2019-05-29T03:28:50.598Z,101392.34
2019-05-29T03:33:56.011Z,101402.20
2019-05-29T03:39:01.535Z,101414.39
2019-05-29T03:44:10.271Z,101419.36
2019-05-29T03:49:14.239Z,101425.23
2019-05-29T03:54:19.665Z,101426.81
2019-05-29T03:59:26.741Z,101432.54
2019-05-29T04:04:33.510Z,101431.65
2019-05-29T04:09:39.614Z,101437.22
2019-05-29T04:14:45.109Z,101440.73
2019-05-29T04:19:50.503Z,101445.25
2019-05-29T04:24:56.035Z,101454.25
2019-05-29T04:30:01.858Z,101463.94
2019-05-29T04:35:07.550Z,101469.21
2019-05-29T04:40:13.004Z,101469.26
2019-05-29T04:45:18.871Z,101483.77
2019-05-29T04:50:24.396Z,101491.37
2019-05-29T04:55:30.694Z,101496.02
2019-05-29T05:00:37.275Z,101505.89
2019-05-29T05:05:42.789Z,101512.33
2019-05-29T05:10:48.218Z,101517.66
2019-05-29T05:15:55.375Z,101506.92
2019-05-29T05:21:00.816Z,101494.39
2019-05-29T05:26:06.742Z,101491.41
2019-05-29T05:31:12.182Z,101490.09
2019-05-29T05:36:17.737Z,101480.37
2019-05-29T05:41:23.200Z,101475.48
2019-05-29T05:46:28.978Z,101490.61
2019-05-29T05:51:38.255Z,101488.06
2019-05-29T05:56:42.168Z,101492.40
2019-05-29T06:01:47.951Z,101488.83
2019-05-29T06:06:53.720Z,101490.93
2019-05-29T06:11:59.617Z,101491.80
2019-05-29T06:17:05.334Z,101487.77
2019-05-29T06:22:11.043Z,101487.39
2019-05-29T06:27:16.813Z,101494.78
2019-05-29T06:32:22.747Z,101496.61
2019-05-29T06:37:28.494Z,101492.06
2019-05-29T06:42:35.603Z,101493.08
2019-05-29T06:47:42.758Z,101494.70
2019-05-29T06:52:48.632Z,101492.78
2019-05-29T06:57:54.402Z,101497.09
2019-05-29T07:03:00.153Z,101494.49
2019-05-29T07:08:18.725Z,101493.89
2019-05-29T07:13:13.500Z,101495.33
2019-05-29T07:18:19.198Z,101506.31
2019-05-29T07:23:24.972Z,101510.19
2019-05-29T07:28:30.722Z,101512.22
2019-05-29T07:33:36.971Z,101504.49
2019-05-29T07:38:45.986Z,101508.28
2019-05-29T07:43:50.197Z,101511.36
2019-05-29T07:48:55.988Z,101514.59
2019-05-29T07:54:01.830Z,101520.45
2019-05-29T07:59:07.559Z,101512.48
2019-05-29T08:04:13.320Z,101512.77
2019-05-29T08:09:19.024Z,101506.12
2019-05-29T08:14:24.725Z,101519.13
2019-05-29T08:19:31.690Z,101517.75
2019-05-29T08:24:37.404Z,101509.13
2019-05-29T08:29:43.217Z,101516.19
2019-05-29T08:34:49.136Z,101511.98
2019-05-29T08:39:55.188Z,101512.66
2019-05-29T08:45:00.887Z,101511.84
2019-05-29T08:50:18.344Z,101517.85
2019-05-29T08:55:14.281Z,101521.46
2019-05-29T09:00:19.974Z,101525.33
2019-05-29T09:05:25.716Z,101516.32
2019-05-29T09:10:31.481Z,101511.92
2019-05-29T09:15:37.251Z,101517.11
2019-05-29T09:21:01.752Z,101519.48
2019-05-29T09:25:50.561Z,101516.82
2019-05-29T09:30:56.233Z,101515.69
2019-05-29T09:36:02.029Z,101516.86
2019-05-29T09:41:07.796Z,101517.99
2019-05-29T09:46:13.529Z,101522.06
2019-05-29T09:51:21.629Z,101526.09
2019-05-29T09:56:26.766Z,101535.95
2019-05-29T10:01:32.565Z,101552.39
2019-05-29T10:06:38.321Z,101564.89
2019-05-29T10:11:44.042Z,101574.61
2019-05-29T10:16:49.952Z,101589.16
2019-05-29T10:21:56.833Z,101592.98
2019-05-29T10:27:03.566Z,101598.31
2019-05-29T10:32:09.846Z,101604.83
2019-05-29T10:37:18.061Z,101599.98
2019-05-29T10:42:22.686Z,101604.55
2019-05-29T10:47:28.204Z,101597.94
2019-05-29T10:52:33.738Z,101595.65
2019-05-29T10:57:39.293Z,101593.65
2019-05-29T11:02:46.114Z,101582.01
2019-05-29T11:07:52.393Z,101586.80
2019-05-29T11:12:57.945Z,101582.16
2019-05-29T11:18:03.468Z,101586.59
2019-05-29T11:23:09.286Z,101585.81
2019-05-29T11:28:14.956Z,101581.25
2019-05-29T11:33:20.420Z,101574.14
2019-05-29T11:38:25.986Z,101569.34
2019-05-29T11:43:31.835Z,101573.20
2019-05-29T11:48:37.416Z,101576.82
2019-05-29T11:53:43.001Z,101576.20
2019-05-29T11:58:48.512Z,101570.88
2019-05-29T12:04:24.196Z,101565.75
2019-05-29T12:09:01.882Z,101565.71
2019-05-29T12:14:07.412Z,101565.08
2019-05-29T12:19:12.893Z,101566.71
2019-05-29T12:24:18.303Z,101567.48
2019-05-29T12:29:23.768Z,101565.39
2019-05-29T12:34:29.189Z,101565.25
2019-05-29T12:39:34.786Z,101563.83
2019-05-29T12:44:40.442Z,101563.64
2019-05-29T12:49:45.857Z,101562.13
2019-05-29T12:54:51.302Z,101562.00
2019-05-29T12:59:58.001Z,101555.52
2019-05-29T13:05:08.422Z,101555.78
2019-05-29T13:10:27.018Z,101559.30
2019-05-29T13:15:18.522Z,101553.40
2019-05-29T13:20:24.060Z,101548.94
2019-05-29T13:25:29.490Z,101548.05
2019-05-29T13:30:34.942Z,101547.62
2019-05-29T13:35:40.649Z,101547.01
2019-05-29T13:40:46.188Z,101535.99
2019-05-29T13:45:52.021Z,101537.25
2019-05-29T13:50:59.398Z,101532.25
2019-05-29T13:56:06.104Z,101536.72
2019-05-29T14:01:11.839Z,101536.91
2019-05-29T14:06:17.261Z,101534.64
2019-05-29T14:11:22.773Z,101527.94
2019-05-29T14:16:28.336Z,101528.90
2019-05-29T14:21:33.910Z,101529.46
2019-05-29T14:26:39.419Z,101521.86
2019-05-29T14:31:44.886Z,101523.98
2019-05-29T14:36:50.404Z,101519.82
2019-05-29T14:41:55.899Z,101514.64
2019-05-29T14:47:01.883Z,101509.20
2019-05-29T14:52:08.696Z,101516.68
2019-05-29T14:57:25.551Z,101518.30
2019-05-29T15:02:23.826Z,101511.87
2019-05-29T15:07:28.858Z,101518.94
2019-05-29T15:12:34.411Z,101516.79
2019-05-29T15:17:39.935Z,101521.80
2019-05-29T15:22:45.480Z,101524.85
2019-05-29T15:27:51.108Z,101521.17
2019-05-29T15:32:56.684Z,101522.18
2019-05-29T15:38:02.368Z,101525.92
2019-05-29T15:43:08.799Z,101520.58
2019-05-29T15:48:15.255Z,101518.45
2019-05-29T15:53:20.792Z,101518.76
2019-05-29T15:58:26.300Z,101517.45
2019-05-29T16:03:31.838Z,101517.59
2019-05-29T16:08:37.357Z,101516.82
2019-05-29T16:13:42.784Z,101517.77
2019-05-29T16:18:48.253Z,101509.92
2019-05-29T16:23:53.685Z,101507.20
2019-05-29T16:28:59.250Z,101505.94
2019-05-29T16:34:04.918Z,101510.27
2019-05-29T16:39:11.389Z,101508.86
2019-05-29T16:44:18.142Z,101509.09
2019-05-29T16:49:23.711Z,101514.14
2019-05-29T16:54:29.129Z,101510.56
2019-05-29T16:59:34.617Z,101508.34
2019-05-29T17:04:40.073Z,101501.11
2019-05-29T17:09:45.723Z,101506.61
2019-05-29T17:14:51.125Z,101501.23
2019-05-29T17:19:56.605Z,101505.36
2019-05-29T17:25:02.053Z,101513.17
2019-05-29T17:30:07.765Z,101513.74
2019-05-29T17:35:14.646Z,101509.00
2019-05-29T17:40:21.426Z,101513.20
2019-05-29T17:45:27.423Z,101522.34
2019-05-29T17:50:33.189Z,101529.84
2019-05-29T17:55:38.688Z,101532.84
2019-05-29T18:00:44.125Z,101533.71
2019-05-29T18:05:49.615Z,101532.67
2019-05-29T18:10:55.135Z,101541.08
2019-05-29T18:16:00.601Z,101538.67
2019-05-29T18:21:06.217Z,101545.81
2019-05-29T18:26:11.703Z,101547.10
2019-05-29T18:31:18.377Z,101551.88
2019-05-29T18:36:25.247Z,101545.38
2019-05-29T18:41:30.906Z,101547.19
2019-05-29T18:46:38.197Z,101546.89
2019-05-29T18:51:43.615Z,101546.28
2019-05-29T18:57:13.681Z,101548.92
2019-05-29T19:01:56.274Z,101551.05
2019-05-29T19:07:01.721Z,101558.20
2019-05-29T19:12:07.250Z,101559.08
2019-05-29T19:17:12.900Z,101561.70
2019-05-29T19:22:18.419Z,101568.36
2019-05-29T19:27:35.066Z,101570.91
2019-05-29T19:32:32.300Z,101572.70
2019-05-29T19:37:38.435Z,101581.11
2019-05-29T19:42:44.030Z,101585.83
2019-05-29T19:47:49.486Z,101588.71
2019-05-29T19:52:54.968Z,101599.63
2019-05-29T19:58:00.571Z,101604.16
2019-05-29T20:03:06.067Z,101608.95
2019-05-29T20:08:11.494Z,101605.39
2019-05-29T20:13:16.915Z,101621.80
2019-05-29T20:18:22.317Z,101626.08
2019-05-29T20:23:28.598Z,101630.85
2019-05-29T20:28:34.316Z,101628.95
2019-05-29T20:33:39.757Z,101625.58
2019-05-29T20:38:45.319Z,101628.00
2019-05-29T20:43:50.926Z,101631.80
2019-05-29T20:48:56.406Z,101627.28
2019-05-29T20:54:01.841Z,101633.60
2019-05-29T20:59:07.297Z,101635.67
2019-05-29T21:04:12.730Z,101630.48
2019-05-29T21:09:18.231Z,101634.48
2019-05-29T21:14:23.636Z,101641.78
2019-05-29T21:19:29.091Z,101644.48
2019-05-29T21:24:34.691Z,101648.23
2019-05-29T21:29:41.227Z,101655.95
2019-05-29T21:34:46.869Z,101656.97
2019-05-29T21:39:52.349Z,101655.73
2019-05-29T21:44:57.797Z,101653.17
2019-05-29T21:50:03.376Z,101651.28
2019-05-29T21:55:08.948Z,101655.02
2019-05-29T22:00:17.135Z,101657.70
2019-05-29T22:05:22.557Z,101656.03
2019-05-29T22:10:28.183Z,101651.92
2019-05-29T22:15:33.717Z,101663.87
2019-05-29T22:20:39.109Z,101662.45
2019-05-29T22:25:44.626Z,101664.73
2019-05-29T22:30:51.282Z,101658.22
2019-05-29T22:35:57.513Z,101664.84
2019-05-29T22:41:02.993Z,101667.89
2019-05-29T22:46:08.575Z,101665.60
2019-05-29T22:51:14.055Z,101664.61
2019-05-29T22:56:19.605Z,101664.30
2019-05-29T23:01:25.115Z,101669.92
2019-05-29T23:06:30.525Z,101668.20
2019-05-29T23:11:36.104Z,101663.47
2019-05-29T23:16:41.544Z,101666.32
2019-05-29T23:21:46.974Z,101665.02
2019-05-29T23:26:52.903Z,101667.51
2019-05-29T23:31:58.901Z,101672.30
2019-05-29T23:37:04.579Z,101673.04
2019-05-29T23:42:10.099Z,101672.98
2019-05-29T23:47:15.559Z,101671.79
2019-05-29T23:52:20.962Z,101672.08
2019-05-29T23:57:26.358Z,101673.92
